Time;durP1;ratioP1;P1;durP2;ratioP2;P2;SDS_P1;SDS_P2;PMS_P1;PMS_P2;Temp;Humidity;BMP_temperature;BMP_pressure;BME280_temperature;BME280_humidity;BME280_pressure;Samples;Min_cycle;Max_cycle;Signal;HPM_P1;HPM_P2
2021/10/13 00:02:16;;;;;;;15.40;1.50;;;9.50;99.90;;;;;;4867022;29;20078;-88
2021/10/13 00:04:42;;;;;;;14.07;1.52;;;9.40;99.90;;;;;;4865959;29;20135;-87
2021/10/13 00:07:08;;;;;;;14.65;2.00;;;9.40;99.90;;;;;;4862383;29;20056;-87
2021/10/13 00:09:34;;;;;;;12.55;1.75;;;9.50;99.90;;;;;;4884936;29;20525;-87
2021/10/13 00:12:00;;;;;;;17.38;2.25;;;9.50;99.90;;;;;;4853341;29;20079;-87
2021/10/13 00:14:26;;;;;;;8.13;1.38;;;9.50;99.90;;;;;;4869245;29;20056;-87
2021/10/13 00:16:54;;;;;;;10.85;1.58;;;9.50;99.90;;;;;;4880787;29;20064;-87
2021/10/13 00:19:21;;;;;;;18.58;1.40;;;9.50;99.90;;;;;;4865043;29;20084;-88
2021/10/13 00:21:46;;;;;;;8.13;1.63;;;9.50;99.90;;;;;;4873479;29;20491;-87
2021/10/13 00:24:12;;;;;;;12.35;1.48;;;9.60;99.90;;;;;;4868553;29;20180;-87
2021/10/13 00:26:38;;;;;;;12.25;2.15;;;9.80;99.90;;;;;;4868324;29;20086;-90
2021/10/13 00:29:04;;;;;;;12.68;2.60;;;9.90;99.90;;;;;;4899837;29;20143;-86
2021/10/13 00:31:30;;;;;;;9.18;1.27;;;9.80;99.90;;;;;;4852168;29;20160;-88
2021/10/13 00:33:55;;;;;;;13.27;1.40;;;9.90;99.90;;;;;;4868137;29;20059;-87
2021/10/13 00:36:21;;;;;;;12.70;1.75;;;9.90;99.90;;;;;;4854800;29;20062;-89
2021/10/13 00:38:47;;;;;;;9.50;1.27;;;10.00;99.90;;;;;;4849347;29;20501;-87
2021/10/13 00:41:16;;;;;;;13.27;1.50;;;10.00;99.90;;;;;;4876581;29;20438;-87
2021/10/13 00:43:43;;;;;;;8.70;1.70;;;10.10;99.90;;;;;;4868183;29;20135;-90
2021/10/13 00:46:09;;;;;;;8.48;2.00;;;10.00;99.90;;;;;;4874075;29;20060;-86
2021/10/13 00:48:35;;;;;;;16.60;1.73;;;10.00;99.90;;;;;;4880602;29;20056;-88
2021/10/13 00:51:00;;;;;;;9.93;1.02;;;10.10;99.90;;;;;;4867387;29;20505;-87
2021/10/13 00:53:27;;;;;;;6.80;1.00;;;10.10;99.90;;;;;;4867512;29;20055;-87
2021/10/13 00:55:53;;;;;;;10.63;1.10;;;10.10;99.90;;;;;;4855236;29;20048;-87
2021/10/13 00:58:19;;;;;;;13.32;1.90;;;10.10;99.90;;;;;;4849818;29;20056;-87
2021/10/13 01:00:53;;;;;;;11.35;1.33;;;10.20;99.90;;;;;;4865951;29;20048;-87
2021/10/13 01:03:47;;;;;;;5.78;1.02;;;10.10;99.90;;;;;;4882386;29;20687;-87
2021/10/13 01:07:06;;;;;;;4.68;1.20;;;10.10;99.90;;;;;;5124292;27;20398;-80
2021/10/13 01:09:57;;;;;;;7.30;0.85;;;10.10;99.90;;;;;;5104408;28;20131;-80
2021/10/13 01:12:32;;;;;;;5.28;1.38;;;10.20;99.90;;;;;;5117566;28;20040;-80
2021/10/13 01:15:18;;;;;;;5.72;0.98;;;10.20;99.90;;;;;;5122880;28;20039;-80
2021/10/13 01:17:54;;;;;;;7.13;1.25;;;10.10;99.90;;;;;;5138799;27;20047;-79
2021/10/13 01:20:42;;;;;;;12.00;0.85;;;10.10;99.90;;;;;;5105778;28;20043;-79
2021/10/13 01:23:38;;;;;;;17.67;1.38;;;10.00;99.90;;;;;;5092497;28;20620;-79
2021/10/13 01:26:16;;;;;;;7.00;1.58;;;10.10;99.90;;;;;;5118602;28;20378;-80
2021/10/13 01:28:44;;;;;;;10.25;1.42;;;10.10;99.90;;;;;;5112422;28;20047;-80
2021/10/13 01:31:19;;;;;;;9.48;1.00;;;10.10;99.90;;;;;;5123520;27;20062;-80
2021/10/13 01:33:54;;;;;;;12.07;1.80;;;10.20;99.90;;;;;;5121178;27;20042;-81
2021/10/13 01:36:28;;;;;;;9.07;1.30;;;10.20;99.90;;;;;;5122874;27;20050;-80
2021/10/13 01:38:56;;;;;;;9.40;1.30;;;10.30;99.90;;;;;;5120927;28;20400;-80
2021/10/13 01:41:22;;;;;;;8.90;1.20;;;10.40;99.90;;;;;;5123476;28;20587;-80
2021/10/13 01:43:51;;;;;;;14.73;1.10;;;10.50;99.90;;;;;;5121757;28;20039;-79
2021/10/13 01:46:20;;;;;;;19.90;1.77;;;10.50;99.90;;;;;;5122019;28;20047;-79
2021/10/13 01:48:46;;;;;;;3.85;1.02;;;10.60;99.90;;;;;;5122369;28;20131;-80
2021/10/13 01:51:13;;;;;;;11.15;1.25;;;10.60;99.90;;;;;;5103814;28;20499;-79
2021/10/13 01:53:41;;;;;;;5.22;1.30;;;10.50;99.90;;;;;;5140260;27;20040;-79
2021/10/13 01:56:08;;;;;;;12.45;1.98;;;10.30;99.90;;;;;;5120665;28;20040;-79
2021/10/13 01:58:36;;;;;;;20.13;2.10;;;10.10;99.90;;;;;;5122585;28;20032;-79
2021/10/13 02:01:03;;;;;;;10.40;1.40;;;10.00;99.90;;;;;;5121486;28;20043;-80
2021/10/13 02:03:32;;;;;;;7.75;1.42;;;9.90;99.90;;;;;;5121431;28;20047;-80
2021/10/13 02:06:01;;;;;;;18.95;2.28;;;9.80;99.90;;;;;;5121575;28;20043;-80
2021/10/13 02:08:28;;;;;;;16.38;2.20;;;9.70;99.90;;;;;;5120835;27;20043;-81
2021/10/13 02:10:56;;;;;;;19.92;2.10;;;9.70;99.90;;;;;;5090460;28;20046;-81
2021/10/13 02:13:23;;;;;;;14.15;1.55;;;9.60;99.90;;;;;;5120967;28;20031;-80
2021/10/13 02:15:53;;;;;;;9.73;1.58;;;9.60;99.90;;;;;;5105074;28;20433;-80
2021/10/13 02:18:25;;;;;;;12.40;1.60;;;9.60;99.90;;;;;;5107441;28;20126;-81
2021/10/13 02:20:54;;;;;;;21.67;1.67;;;9.60;99.90;;;;;;5106781;28;20505;-80
2021/10/13 02:23:22;;;;;;;8.73;1.30;;;9.60;99.90;;;;;;5108628;28;20048;-80
2021/10/13 02:25:50;;;;;;;10.05;2.03;;;9.60;99.90;;;;;;5106200;28;20166;-80
2021/10/13 02:28:24;;;;;;;15.60;1.15;;;9.70;99.90;;;;;;5108522;28;20416;-81
2021/10/13 02:30:51;;;;;;;11.30;1.10;;;9.80;99.90;;;;;;5107773;27;20548;-80
2021/10/13 02:33:17;;;;;;;7.68;1.45;;;9.80;99.90;;;;;;5088376;28;20047;-80
2021/10/13 02:35:43;;;;;;;7.15;1.23;;;9.80;99.90;;;;;;5106600;28;20051;-80
2021/10/13 02:38:09;;;;;;;6.65;0.90;;;9.90;99.90;;;;;;5099506;28;20040;-80
2021/10/13 02:40:35;;;;;;;7.28;1.20;;;9.90;99.90;;;;;;5088034;28;20044;-81
2021/10/13 02:43:01;;;;;;;11.30;1.75;;;9.90;99.90;;;;;;5085795;28;20129;-81
2021/10/13 02:45:30;;;;;;;17.05;1.63;;;9.90;99.90;;;;;;5087644;28;20505;-81
2021/10/13 02:48:00;;;;;;;7.25;1.15;;;9.90;99.90;;;;;;5096355;28;20040;-80
2021/10/13 02:50:45;;;;;;;9.70;1.60;;;9.90;99.90;;;;;;5072871;28;20464;-80
2021/10/13 02:53:23;;;;;;;10.27;1.48;;;10.00;99.90;;;;;;5086609;28;20051;-80
2021/10/13 02:55:54;;;;;;;33.20;2.17;;;10.00;99.90;;;;;;5085655;28;20129;-81
2021/10/13 02:58:41;;;;;;;7.28;0.80;;;10.00;99.90;;;;;;5087352;28;20489;-80
2021/10/13 03:01:12;;;;;;;10.32;1.05;;;10.00;99.90;;;;;;5089139;28;20346;-80
2021/10/13 03:03:46;;;;;;;16.00;1.73;;;10.00;99.90;;;;;;5089754;28;20189;-80
2021/10/13 03:06:13;;;;;;;7.65;1.30;;;10.00;99.90;;;;;;5089917;28;20138;-79
2021/10/13 03:08:43;;;;;;;11.07;1.40;;;10.00;99.90;;;;;;5085941;28;20044;-80
2021/10/13 03:11:10;;;;;;;8.60;1.10;;;9.90;99.90;;;;;;5075641;28;20196;-80
2021/10/13 03:13:38;;;;;;;7.10;1.17;;;9.80;99.90;;;;;;5089528;28;20089;-80
2021/10/13 03:16:06;;;;;;;12.88;1.30;;;9.60;99.90;;;;;;5124414;27;20040;-80
2021/10/13 03:18:35;;;;;;;8.05;1.30;;;9.50;99.90;;;;;;5089784;28;20036;-80
2021/10/13 03:21:02;;;;;;;17.45;1.55;;;9.30;99.90;;;;;;5089366;28;20048;-80
2021/10/13 03:23:28;;;;;;;8.55;1.45;;;9.20;99.90;;;;;;5107298;28;20046;-80
2021/10/13 03:25:54;;;;;;;9.77;1.70;;;9.10;99.90;;;;;;5105212;28;20058;-80
2021/10/13 03:28:19;;;;;;;16.45;1.80;;;9.00;99.90;;;;;;5106350;28;20047;-80
2021/10/13 03:30:45;;;;;;;11.63;1.50;;;8.90;99.90;;;;;;5106069;28;20043;-80
2021/10/13 03:33:12;;;;;;;7.25;1.48;;;8.90;99.90;;;;;;5106631;28;20031;-80
2021/10/13 03:35:38;;;;;;;19.60;1.67;;;8.90;99.90;;;;;;5105671;28;20617;-79
2021/10/13 03:38:05;;;;;;;16.85;1.55;;;8.80;99.90;;;;;;5106021;28;20136;-80
2021/10/13 03:40:32;;;;;;;10.43;1.42;;;8.70;99.90;;;;;;5106340;28;20039;-80
2021/10/13 03:42:58;;;;;;;20.88;1.60;;;8.60;99.90;;;;;;5105244;28;20122;-79
2021/10/13 03:45:25;;;;;;;26.20;2.08;;;8.60;99.90;;;;;;5089915;28;20036;-79
2021/10/13 03:47:51;;;;;;;21.38;2.13;;;8.50;99.90;;;;;;5105024;28;20048;-79
2021/10/13 03:50:19;;;;;;;14.35;1.42;;;8.50;99.90;;;;;;5106842;28;20669;-80
2021/10/13 03:52:45;;;;;;;14.85;1.77;;;8.40;99.90;;;;;;5105272;28;20052;-80
2021/10/13 03:55:13;;;;;;;13.45;1.83;;;8.40;99.90;;;;;;5106163;28;20040;-79
2021/10/13 03:57:39;;;;;;;14.02;2.33;;;8.20;99.90;;;;;;5106197;28;20480;-80
2021/10/13 04:00:07;;;;;;;5.30;1.40;;;8.20;99.90;;;;;;5105127;28;20040;-80
2021/10/13 04:02:33;;;;;;;9.15;1.27;;;8.10;99.90;;;;;;5105922;28;20044;-79
2021/10/13 04:04:59;;;;;;;21.40;2.00;;;8.10;99.90;;;;;;5086811;28;20439;-79
2021/10/13 04:07:24;;;;;;;10.70;1.50;;;8.00;99.90;;;;;;5089647;28;20040;-80
2021/10/13 04:09:50;;;;;;;14.23;1.95;;;8.00;99.90;;;;;;5096309;28;20087;-79
2021/10/13 04:12:16;;;;;;;12.32;1.42;;;7.90;99.90;;;;;;5100456;28;20409;-79
2021/10/13 04:14:42;;;;;;;14.43;1.42;;;7.90;99.90;;;;;;5105185;28;20043;-79
2021/10/13 04:17:07;;;;;;;10.57;1.33;;;7.90;99.90;;;;;;5088217;28;20047;-80
2021/10/13 04:19:33;;;;;;;11.50;1.95;;;8.00;99.90;;;;;;5089147;28;20035;-80
2021/10/13 04:21:59;;;;;;;15.23;1.90;;;8.00;99.90;;;;;;5104513;28;20508;-80
2021/10/13 04:24:25;;;;;;;11.55;1.52;;;8.00;99.90;;;;;;5106251;28;20087;-80
2021/10/13 04:26:51;;;;;;;9.60;1.15;;;8.00;99.90;;;;;;5105188;28;20039;-79
2021/10/13 04:29:17;;;;;;;11.65;1.73;;;8.00;99.90;;;;;;5105550;28;20035;-80
2021/10/13 04:31:43;;;;;;;20.10;3.10;;;8.00;99.90;;;;;;5087375;28;20444;-80
2021/10/13 04:34:08;;;;;;;13.15;4.35;;;8.10;99.90;;;;;;5088443;28;20044;-80
2021/10/13 04:36:34;;;;;;;13.07;3.65;;;8.20;99.90;;;;;;5122763;27;20393;-79
2021/10/13 04:39:00;;;;;;;16.27;3.35;;;8.40;99.90;;;;;;5104900;28;20480;-79
2021/10/13 04:41:26;;;;;;;20.40;5.05;;;8.40;99.90;;;;;;5105992;28;20417;-80
2021/10/13 04:43:51;;;;;;;22.40;5.68;;;8.40;99.90;;;;;;5087228;28;20032;-80
2021/10/13 04:46:17;;;;;;;14.98;4.07;;;8.50;99.90;;;;;;5087826;28;20040;-79
2021/10/13 04:48:43;;;;;;;15.15;4.05;;;8.50;99.90;;;;;;5104269;28;20073;-79
2021/10/13 04:51:08;;;;;;;16.95;3.75;;;8.40;99.90;;;;;;5088414;28;20401;-79
2021/10/13 04:53:34;;;;;;;14.88;3.53;;;8.50;99.90;;;;;;5121901;27;20092;-79
2021/10/13 04:56:00;;;;;;;14.50;2.70;;;8.60;99.90;;;;;;5066797;28;20040;-79
2021/10/13 04:58:28;;;;;;;24.85;3.33;;;8.60;99.90;;;;;;5102294;28;20048;-79
2021/10/13 05:00:54;;;;;;;17.17;2.50;;;8.60;99.90;;;;;;5098357;28;20055;-79
2021/10/13 05:03:20;;;;;;;17.45;2.92;;;8.60;99.90;;;;;;5101463;28;20446;-79
2021/10/13 05:05:46;;;;;;;24.02;2.17;;;8.70;99.90;;;;;;5094400;28;20051;-79
2021/10/13 05:08:11;;;;;;;15.63;2.50;;;8.70;99.90;;;;;;5087858;28;20448;-79
2021/10/13 05:10:38;;;;;;;9.90;2.08;;;8.70;99.90;;;;;;5085125;28;20547;-80
2021/10/13 05:13:04;;;;;;;12.15;1.70;;;8.80;99.90;;;;;;5105239;28;20389;-80
2021/10/13 05:15:30;;;;;;;6.47;1.20;;;9.00;99.90;;;;;;5067569;28;20052;-79
2021/10/13 05:17:56;;;;;;;12.20;1.85;;;9.10;99.90;;;;;;5104011;28;20107;-80
2021/10/13 05:20:22;;;;;;;17.52;1.20;;;9.40;99.90;;;;;;5106042;28;20180;-80
2021/10/13 05:22:48;;;;;;;17.38;1.90;;;9.50;99.90;;;;;;5084499;28;20371;-79
2021/10/13 05:25:14;;;;;;;9.88;1.77;;;9.50;99.90;;;;;;5098994;28;20055;-79
2021/10/13 05:27:39;;;;;;;9.40;1.33;;;9.50;99.90;;;;;;5087132;28;20402;-79
2021/10/13 05:30:06;;;;;;;18.35;2.15;;;9.60;99.90;;;;;;5084800;28;20040;-79
2021/10/13 05:32:31;;;;;;;11.90;1.60;;;9.50;99.90;;;;;;5084692;28;20079;-79
2021/10/13 05:34:57;;;;;;;8.73;1.00;;;9.50;99.90;;;;;;5084401;28;20071;-79
2021/10/13 05:37:23;;;;;;;6.07;1.52;;;9.60;99.90;;;;;;5067968;28;20056;-79
2021/10/13 05:39:49;;;;;;;14.65;1.70;;;9.70;99.90;;;;;;5083646;28;20052;-79
2021/10/13 05:42:14;;;;;;;8.35;1.77;;;9.70;99.90;;;;;;5093041;28;20077;-79
2021/10/13 05:44:40;;;;;;;5.10;0.70;;;9.80;99.90;;;;;;5084353;28;20108;-79
2021/10/13 05:47:06;;;;;;;7.43;0.80;;;9.80;99.90;;;;;;5067538;28;20040;-80
2021/10/13 05:49:32;;;;;;;7.53;0.98;;;9.80;99.90;;;;;;5066502;28;20037;-79
2021/10/13 05:51:58;;;;;;;5.85;0.70;;;9.80;99.90;;;;;;5085748;28;20070;-80
2021/10/13 05:54:23;;;;;;;6.50;0.70;;;9.80;99.90;;;;;;5087749;28;20031;-80
2021/10/13 05:56:51;;;;;;;2.65;0.50;;;9.80;99.90;;;;;;5099980;28;20036;-80
2021/10/13 05:59:17;;;;;;;4.45;0.60;;;9.90;99.90;;;;;;5082075;28;20112;-80
2021/10/13 06:01:43;;;;;;;4.75;0.70;;;10.00;99.90;;;;;;5093895;28;20389;-79
2021/10/13 06:04:08;;;;;;;4.55;1.00;;;10.10;99.90;;;;;;5087789;28;20051;-79
2021/10/13 06:06:34;;;;;;;11.80;2.08;;;10.00;99.90;;;;;;5086471;28;20055;-79
2021/10/13 06:09:00;;;;;;;9.75;1.52;;;9.90;99.90;;;;;;5088469;28;20044;-79
2021/10/13 06:11:26;;;;;;;8.75;1.63;;;9.80;99.90;;;;;;5083692;28;20109;-79
2021/10/13 06:13:52;;;;;;;11.88;2.15;;;9.70;99.90;;;;;;5108661;28;20058;-79
2021/10/13 06:16:19;;;;;;;9.50;1.75;;;9.70;99.90;;;;;;5107622;28;20050;-79
2021/10/13 06:18:47;;;;;;;11.85;1.63;;;9.60;99.90;;;;;;5107173;28;20094;-80
2021/10/13 06:21:13;;;;;;;13.82;1.60;;;9.50;99.90;;;;;;5090906;28;20036;-80
2021/10/13 06:23:39;;;;;;;7.70;1.33;;;9.50;99.90;;;;;;5106920;28;20574;-79
2021/10/13 06:26:04;;;;;;;19.27;1.50;;;9.40;99.90;;;;;;5091029;28;20051;-79
2021/10/13 06:28:31;;;;;;;24.90;2.35;;;9.30;99.90;;;;;;5090120;28;20044;-79
2021/10/13 06:30:57;;;;;;;12.05;1.80;;;9.30;99.90;;;;;;5107901;28;20044;-79
2021/10/13 06:33:23;;;;;;;10.35;1.02;;;9.20;99.90;;;;;;5090334;28;20508;-79
2021/10/13 06:35:49;;;;;;;9.63;1.75;;;9.20;99.90;;;;;;5069721;28;20055;-79
2021/10/13 06:38:15;;;;;;;9.13;1.23;;;9.20;99.90;;;;;;5084931;28;20068;-78
2021/10/13 06:40:41;;;;;;;5.78;1.38;;;9.10;99.90;;;;;;5060010;28;20032;-79
2021/10/13 06:43:09;;;;;;;15.85;1.48;;;9.10;99.90;;;;;;5104090;28;20043;-80
2021/10/13 06:45:36;;;;;;;9.18;1.75;;;9.10;99.90;;;;;;5123800;27;20040;-79
2021/10/13 06:48:03;;;;;;;10.23;2.40;;;9.20;99.90;;;;;;5090266;28;20118;-79
2021/10/13 06:50:29;;;;;;;7.65;1.52;;;9.20;99.90;;;;;;5106676;28;20047;-79
2021/10/13 06:52:55;;;;;;;7.50;1.42;;;9.20;99.90;;;;;;5090524;28;20050;-79
2021/10/13 06:55:20;;;;;;;11.75;1.75;;;9.20;99.90;;;;;;5090104;28;20086;-79
2021/10/13 06:57:46;;;;;;;8.45;1.27;;;9.20;99.90;;;;;;5089117;28;20122;-79
2021/10/13 07:00:13;;;;;;;9.25;1.15;;;9.30;99.90;;;;;;5090660;28;20096;-79
2021/10/13 07:02:38;;;;;;;13.38;1.30;;;9.40;99.90;;;;;;5106133;28;20048;-79
2021/10/13 07:05:05;;;;;;;12.93;2.00;;;9.40;99.90;;;;;;5107206;28;20505;-79
2021/10/13 07:07:31;;;;;;;11.40;1.40;;;9.40;99.90;;;;;;5106580;28;20047;-80
2021/10/13 07:09:56;;;;;;;8.82;1.00;;;9.50;99.90;;;;;;5106257;28;20103;-80
2021/10/13 07:12:22;;;;;;;9.85;1.25;;;9.50;99.90;;;;;;5107861;27;20177;-80
2021/10/13 07:14:47;;;;;;;6.32;0.82;;;9.50;99.90;;;;;;5086126;28;20129;-80
2021/10/13 07:17:13;;;;;;;12.93;1.10;;;9.50;99.90;;;;;;5069442;28;20127;-80
2021/10/13 07:19:39;;;;;;;14.05;1.63;;;9.40;99.90;;;;;;5085292;28;20040;-79
2021/10/13 07:22:05;;;;;;;14.05;1.23;;;9.40;99.90;;;;;;5070443;28;20064;-79
2021/10/13 07:24:30;;;;;;;4.13;0.88;;;9.40;99.90;;;;;;5068227;28;20040;-80
2021/10/13 07:26:56;;;;;;;7.22;1.15;;;9.40;99.90;;;;;;5088442;28;20055;-79
2021/10/13 07:29:22;;;;;;;13.60;1.25;;;9.50;99.90;;;;;;5076314;28;20040;-79
2021/10/13 07:31:48;;;;;;;16.33;1.50;;;9.50;99.90;;;;;;5093935;28;20047;-79
2021/10/13 07:34:14;;;;;;;13.30;1.55;;;9.70;99.90;;;;;;5090098;28;20071;-80
2021/10/13 07:36:39;;;;;;;9.75;1.70;;;9.70;99.90;;;;;;5085284;28;20081;-79
2021/10/13 07:39:06;;;;;;;7.25;1.55;;;9.90;99.90;;;;;;5069847;28;20371;-80
2021/10/13 07:41:34;;;;;;;7.05;1.67;;;10.00;99.90;;;;;;5069164;28;20450;-80
2021/10/13 07:44:00;;;;;;;13.82;2.00;;;10.10;99.90;;;;;;5080603;28;20539;-80
2021/10/13 07:46:25;;;;;;;13.32;1.85;;;10.10;99.90;;;;;;5069379;28;20119;-80
2021/10/13 07:48:52;;;;;;;9.13;1.52;;;10.20;99.90;;;;;;5071357;28;20031;-80
2021/10/13 07:51:19;;;;;;;11.75;2.05;;;10.30;99.90;;;;;;5091159;28;20130;-80
2021/10/13 07:53:44;;;;;;;9.73;1.30;;;10.30;99.90;;;;;;5067866;28;20062;-80
2021/10/13 07:56:11;;;;;;;5.32;1.23;;;10.40;99.90;;;;;;5091846;28;20492;-79
2021/10/13 07:58:36;;;;;;;11.55;1.17;;;10.50;99.90;;;;;;5088808;28;20044;-78
2021/10/13 08:01:02;;;;;;;12.00;1.50;;;10.60;99.90;;;;;;5099216;28;20070;-79
2021/10/13 08:03:28;;;;;;;6.57;1.73;;;10.70;99.90;;;;;;5087311;28;20516;-79
2021/10/13 08:05:54;;;;;;;7.95;1.05;;;10.90;99.90;;;;;;5087127;28;20055;-79
2021/10/13 08:08:19;;;;;;;6.35;0.90;;;10.90;99.90;;;;;;5084360;28;20044;-79
2021/10/13 08:10:45;;;;;;;10.30;1.75;;;11.00;99.90;;;;;;5103953;28;20139;-79
2021/10/13 08:13:11;;;;;;;8.00;0.88;;;11.10;99.90;;;;;;5122741;27;20039;-79
2021/10/13 08:15:37;;;;;;;4.72;0.65;;;11.20;99.90;;;;;;5099993;28;20083;-79
2021/10/13 08:18:02;;;;;;;9.35;0.80;;;11.30;99.90;;;;;;5104006;27;20036;-79
2021/10/13 08:20:28;;;;;;;6.32;1.00;;;11.40;99.90;;;;;;5102445;27;20068;-79
2021/10/13 08:22:54;;;;;;;8.07;1.17;;;11.40;99.90;;;;;;5107936;27;20521;-79
2021/10/13 08:25:20;;;;;;;5.40;1.25;;;11.50;99.90;;;;;;5086672;28;20090;-80
2021/10/13 08:27:46;;;;;;;2.17;0.70;;;11.60;99.90;;;;;;5087500;28;20043;-80
2021/10/13 08:30:12;;;;;;;4.60;0.60;;;11.70;99.90;;;;;;5093522;28;20039;-80
2021/10/13 08:32:38;;;;;;;3.78;0.80;;;11.80;99.90;;;;;;5085474;28;20573;-79
2021/10/13 08:35:05;;;;;;;2.97;0.60;;;11.80;99.90;;;;;;5087270;28;20067;-80
2021/10/13 08:37:31;;;;;;;5.60;0.68;;;11.80;99.90;;;;;;5096109;28;20061;-81
2021/10/13 08:39:57;;;;;;;4.38;1.02;;;11.70;99.90;;;;;;5090803;28;20036;-81
2021/10/13 08:42:27;;;;;;;7.78;0.70;;;11.80;99.90;;;;;;5070978;28;20051;-80
2021/10/13 08:44:54;;;;;;;9.70;1.35;;;11.80;99.90;;;;;;5088351;28;20039;-79
2021/10/13 08:47:20;;;;;;;3.40;0.77;;;11.90;99.90;;;;;;5090081;28;20493;-81
2021/10/13 08:49:46;;;;;;;4.22;0.85;;;12.10;99.90;;;;;;5067575;28;20063;-80
2021/10/13 08:52:13;;;;;;;8.32;0.90;;;12.20;99.90;;;;;;5088214;28;20444;-80
2021/10/13 08:54:39;;;;;;;3.88;0.68;;;12.20;99.90;;;;;;5068831;28;20048;-80
2021/10/13 08:57:19;;;;;;;8.25;1.08;;;12.30;99.90;;;;;;5094101;28;20089;-81
2021/10/13 08:59:48;;;;;;;;;;;12.20;99.90;;;;;;5093398;28;20391;-81
2021/10/13 09:02:15;;;;;;;4.32;0.93;;;12.10;99.90;;;;;;5097740;28;19923;-81
2021/10/13 09:05:04;;;;;;;5.28;0.90;;;11.80;99.90;;;;;;5067733;28;20040;-81
2021/10/13 09:07:29;;;;;;;4.00;0.50;;;11.70;99.90;;;;;;5084154;28;20044;-80
2021/10/13 09:09:56;;;;;;;6.15;0.65;;;11.60;99.90;;;;;;5083090;28;20101;-80
2021/10/13 09:12:40;;;;;;;8.68;1.30;;;11.60;99.90;;;;;;5085131;28;20042;-80
2021/10/13 09:15:11;;;;;;;2.05;0.40;;;11.60;99.90;;;;;;5052289;28;20044;-81
2021/10/13 09:18:26;;;;;;;1.98;0.70;;;11.70;99.90;;;;;;5083743;28;20043;-89
2021/10/13 09:21:49;;;;;;;4.60;0.57;;;11.80;99.90;;;;;;5069835;28;20048;-87
2021/10/13 09:24:15;;;;;;;4.45;0.90;;;12.00;99.90;;;;;;5045366;28;20051;-81
2021/10/13 09:26:41;;;;;;;5.38;0.88;;;12.00;99.90;;;;;;5067825;28;20534;-79
2021/10/13 09:29:07;;;;;;;5.63;1.20;;;12.00;99.90;;;;;;5068031;28;20080;-80
2021/10/13 09:31:33;;;;;;;8.50;0.98;;;12.10;99.90;;;;;;5087146;28;20164;-79
2021/10/13 09:34:03;;;;;;;14.30;1.20;;;12.20;99.90;;;;;;5068974;28;20586;-81
2021/10/13 09:36:54;;;;;;;5.75;0.80;;;12.30;99.90;;;;;;5069963;28;20040;-80
2021/10/13 09:39:19;;;;;;;2.55;0.43;;;12.50;99.90;;;;;;5069107;28;20059;-78
2021/10/13 09:42:05;;;;;;;4.78;0.80;;;12.50;99.90;;;;;;5069157;28;20211;-79
2021/10/13 09:44:42;;;;;;;7.35;0.60;;;12.60;99.90;;;;;;5068436;28;20040;-79
2021/10/13 09:47:11;;;;;;;3.90;0.50;;;12.60;99.90;;;;;;5068293;28;20127;-79
2021/10/13 09:49:45;;;;;;;2.25;0.57;;;12.70;99.90;;;;;;5068560;28;20044;-79
2021/10/13 09:52:13;;;;;;;3.20;0.80;;;12.70;99.90;;;;;;5069031;28;20400;-79
2021/10/13 09:54:41;;;;;;;4.88;1.02;;;12.80;99.90;;;;;;5068024;28;20064;-79
2021/10/13 09:57:24;;;;;;;6.30;0.90;;;12.80;99.90;;;;;;5067461;28;20052;-79
2021/10/13 10:00:12;;;;;;;3.30;0.73;;;12.80;99.90;;;;;;5068139;28;20040;-80
2021/10/13 10:02:39;;;;;;;4.60;0.50;;;12.70;99.90;;;;;;5066097;28;20053;-78
2021/10/13 10:05:19;;;;;;;3.63;0.90;;;12.50;99.90;;;;;;5069084;28;20081;-79
2021/10/13 10:08:03;;;;;;;4.43;0.85;;;12.40;99.90;;;;;;5068721;28;20048;-79
2021/10/13 10:10:30;;;;;;;4.82;0.65;;;12.30;99.90;;;;;;5069389;28;20479;-79
2021/10/13 10:12:57;;;;;;;2.17;0.30;;;12.20;99.90;;;;;;5068275;28;20044;-80
2021/10/13 10:15:48;;;;;;;2.95;0.55;;;12.10;99.90;;;;;;5108113;28;20040;-79
2021/10/13 10:18:32;;;;;;;5.00;0.95;;;12.10;99.90;;;;;;5108049;28;20516;-79
2021/10/13 10:21:25;;;;;;;3.13;0.60;;;12.20;99.90;;;;;;5106587;28;20044;-79
2021/10/13 10:23:56;;;;;;;2.78;0.70;;;12.30;99.90;;;;;;5094998;28;20627;-79
2021/10/13 10:26:24;;;;;;;3.60;0.85;;;12.40;99.90;;;;;;5099073;28;20653;-79
2021/10/13 10:28:50;;;;;;;4.53;0.70;;;12.50;99.90;;;;;;5096680;28;20031;-79
2021/10/13 10:31:28;;;;;;;6.22;0.95;;;12.60;99.90;;;;;;5090943;28;20043;-79
2021/10/13 10:34:02;;;;;;;4.05;0.68;;;12.60;99.90;;;;;;5081872;28;20526;-79
2021/10/13 10:36:34;;;;;;;2.58;1.02;;;12.80;99.90;;;;;;5102726;28;20432;-79
2021/10/13 10:39:09;;;;;;;3.85;0.77;;;12.90;99.90;;;;;;5084008;28;20048;-79
2021/10/13 10:41:49;;;;;;;4.75;0.50;;;13.00;99.90;;;;;;5073252;28;20048;-79
2021/10/13 10:44:37;;;;;;;5.03;0.90;;;13.10;99.90;;;;;;5095016;28;20052;-79
2021/10/13 10:47:14;;;;;;;4.78;0.70;;;13.20;99.90;;;;;;5085126;28;20048;-78
2021/10/13 10:49:43;;;;;;;2.92;0.57;;;13.30;99.90;;;;;;5069870;28;20083;-79
2021/10/13 10:52:10;;;;;;;7.45;0.82;;;13.30;99.90;;;;;;5085571;28;20054;-79
2021/10/13 10:54:37;;;;;;;5.47;1.13;;;13.40;99.90;;;;;;5086945;28;20439;-79
2021/10/13 10:57:23;;;;;;;3.80;0.90;;;13.40;99.90;;;;;;5104492;28;20044;-79
2021/10/13 10:59:49;;;;;;;3.28;0.65;;;13.40;99.90;;;;;;5084211;28;20073;-78
2021/10/13 11:02:22;;;;;;;4.13;1.15;;;13.40;99.90;;;;;;5092319;28;20036;-79
2021/10/13 11:05:04;;;;;;;2.78;0.60;;;13.50;99.90;;;;;;5085062;28;20123;-78
2021/10/13 11:07:30;;;;;;;11.50;2.28;;;13.50;99.90;;;;;;5086313;28;20417;-78
2021/10/13 11:10:01;;;;;;;6.10;1.15;;;13.60;99.90;;;;;;5086712;28;20422;-78
2021/10/13 11:12:27;;;;;;;2.88;0.63;;;13.60;99.90;;;;;;5102024;28;20443;-80
2021/10/13 11:15:09;;;;;;;6.13;1.00;;;13.50;99.90;;;;;;5107064;28;20036;-78
2021/10/13 11:17:35;;;;;;;4.55;0.88;;;13.50;99.90;;;;;;5088493;28;20141;-79
2021/10/13 11:20:11;;;;;;;6.72;0.82;;;13.50;99.90;;;;;;5097947;28;20125;-80
2021/10/13 11:22:38;;;;;;;5.82;0.70;;;13.50;99.90;;;;;;5106531;27;20360;-79
2021/10/13 11:25:18;;;;;;;6.40;1.00;;;13.60;99.90;;;;;;5086167;28;20040;-79
2021/10/13 11:28:11;;;;;;;5.50;0.90;;;13.70;99.90;;;;;;5086047;28;20552;-80
2021/10/13 11:30:42;;;;;;;11.05;0.70;;;13.70;99.90;;;;;;5063692;28;20052;-79
2021/10/13 11:33:16;;;;;;;2.92;0.77;;;13.70;99.90;;;;;;5078451;28;20077;-78
2021/10/13 11:35:48;;;;;;;7.95;0.98;;;13.80;99.90;;;;;;5068195;28;20044;-79
2021/10/13 11:38:21;;;;;;;4.57;0.90;;;13.70;99.90;;;;;;5085630;28;20044;-78
2021/10/13 11:40:47;;;;;;;6.90;1.90;;;13.70;99.90;;;;;;5085428;28;20051;-78
2021/10/13 11:43:17;;;;;;;12.80;2.15;;;13.60;99.90;;;;;;5102264;27;20046;-79
2021/10/13 11:45:53;;;;;;;6.18;1.45;;;13.60;99.90;;;;;;5072057;28;20078;-79
2021/10/13 11:48:24;;;;;;;3.83;0.80;;;13.70;99.90;;;;;;5108399;27;20097;-79
2021/10/13 11:50:50;;;;;;;10.15;1.83;;;13.90;99.90;;;;;;5099603;28;20048;-79
2021/10/13 11:53:16;;;;;;;8.88;1.20;;;14.10;99.90;;;;;;5100577;28;20062;-79
2021/10/13 11:55:42;;;;;;;6.78;0.80;;;14.30;99.90;;;;;;5084450;28;20097;-79
2021/10/13 11:58:07;;;;;;;5.47;0.82;;;14.40;99.90;;;;;;5099141;28;20141;-79
2021/10/13 12:00:35;;;;;;;5.90;1.30;;;14.50;99.90;;;;;;5081307;28;20069;-79
2021/10/13 12:03:11;;;;;;;6.35;0.90;;;14.60;99.90;;;;;;5095210;28;20485;-79
2021/10/13 12:05:42;;;;;;;2.22;1.10;;;14.70;99.90;;;;;;5096275;28;20136;-79
2021/10/13 12:08:14;;;;;;;4.70;1.00;;;14.80;99.90;;;;;;5104984;28;20056;-79
2021/10/13 12:10:49;;;;;;;7.13;1.27;;;14.80;99.90;;;;;;5080063;28;20063;-79
2021/10/13 12:13:23;;;;;;;3.63;1.27;;;14.90;99.90;;;;;;5104033;28;20043;-79
2021/10/13 12:15:50;;;;;;;3.97;0.73;;;14.70;99.90;;;;;;5103626;28;20366;-79
2021/10/13 12:18:21;;;;;;;3.85;0.88;;;14.60;99.90;;;;;;5103140;28;20035;-79
2021/10/13 12:20:49;;;;;;;2.88;0.93;;;14.50;99.90;;;;;;5105226;28;21049;-79
2021/10/13 12:23:19;;;;;;;5.78;0.80;;;14.50;99.90;;;;;;5104418;28;20047;-79
2021/10/13 12:25:45;;;;;;;6.40;1.30;;;14.50;99.90;;;;;;5104050;28;20035;-79
2021/10/13 12:28:18;;;;;;;5.55;0.73;;;14.50;99.90;;;;;;5106453;28;20043;-79
2021/10/13 12:30:46;;;;;;;6.78;0.85;;;14.40;99.90;;;;;;5103738;28;20148;-79
2021/10/13 12:33:16;;;;;;;2.65;0.70;;;14.50;99.90;;;;;;5104724;28;20046;-79
2021/10/13 12:35:43;;;;;;;9.50;1.10;;;14.30;99.90;;;;;;5086832;28;20043;-79
2021/10/13 12:38:19;;;;;;;8.20;0.70;;;14.40;99.90;;;;;;5106031;28;20050;-79
2021/10/13 12:41:02;;;;;;;9.95;0.98;;;14.50;99.90;;;;;;5096016;28;20043;-79
2021/10/13 12:43:28;;;;;;;7.63;1.38;;;14.50;99.90;;;;;;5103974;28;20110;-79
2021/10/13 12:45:53;;;;;;;2.95;0.75;;;14.40;99.90;;;;;;5104912;28;20648;-79
2021/10/13 12:48:23;;;;;;;6.85;1.30;;;14.50;99.90;;;;;;5087230;28;20044;-79
2021/10/13 12:51:04;;;;;;;3.17;0.60;;;14.60;99.90;;;;;;5104219;28;20048;-79
2021/10/13 12:53:31;;;;;;;11.85;2.92;;;14.60;99.90;;;;;;5105168;28;20044;-79
2021/10/13 12:55:57;;;;;;;5.20;1.20;;;14.60;99.90;;;;;;5095879;28;20065;-79
2021/10/13 12:58:27;;;;;;;2.45;0.70;;;14.40;99.90;;;;;;5088509;28;20051;-79
2021/10/13 13:00:53;;;;;;;8.48;1.48;;;14.40;99.90;;;;;;5103154;28;20040;-78